sensor_id;sensor_type;location;lat;lon;timestamp;P1;durP1;ratioP1;P2;durP2;ratioP2
68718;SDS011;55696;52.138;5.444;2022-12-18T00:01:17;47.77;;;17.33;;
68718;SDS011;55696;52.138;5.444;2022-12-18T00:03:45;47.38;;;17.85;;
68718;SDS011;55696;52.138;5.444;2022-12-18T00:06:13;51.63;;;18.38;;
68718;SDS011;55696;52.138;5.444;2022-12-18T00:08:41;55.57;;;19.13;;
68718;SDS011;55696;52.138;5.444;2022-12-18T00:11:10;59.78;;;20.35;;
68718;SDS011;55696;52.138;5.444;2022-12-18T00:13:39;54.78;;;18.85;;
68718;SDS011;55696;52.138;5.444;2022-12-18T00:16:07;54.65;;;18.98;;
68718;SDS011;55696;52.138;5.444;2022-12-18T00:18:37;51.97;;;18.80;;
68718;SDS011;55696;52.138;5.444;2022-12-18T00:21:05;53.67;;;20.67;;
68718;SDS011;55696;52.138;5.444;2022-12-18T00:23:34;47.00;;;18.83;;
68718;SDS011;55696;52.138;5.444;2022-12-18T00:26:07;54.33;;;19.03;;
68718;SDS011;55696;52.138;5.444;2022-12-18T00:28:37;58.83;;;19.95;;
68718;SDS011;55696;52.138;5.444;2022-12-18T00:31:04;52.78;;;19.02;;
68718;SDS011;55696;52.138;5.444;2022-12-18T00:33:33;47.10;;;18.33;;
68718;SDS011;55696;52.138;5.444;2022-12-18T00:36:04;42.15;;;16.80;;
68718;SDS011;55696;52.138;5.444;2022-12-18T00:38:55;54.35;;;19.50;;
68718;SDS011;55696;52.138;5.444;2022-12-18T00:41:23;53.28;;;19.95;;
68718;SDS011;55696;52.138;5.444;2022-12-18T00:44:10;63.80;;;20.80;;
68718;SDS011;55696;52.138;5.444;2022-12-18T00:46:39;42.95;;;17.08;;
68718;SDS011;55696;52.138;5.444;2022-12-18T00:49:06;57.33;;;20.73;;
68718;SDS011;55696;52.138;5.444;2022-12-18T00:51:34;52.43;;;19.57;;
68718;SDS011;55696;52.138;5.444;2022-12-18T00:54:01;51.55;;;20.25;;
68718;SDS011;55696;52.138;5.444;2022-12-18T00:56:27;49.15;;;19.75;;
68718;SDS011;55696;52.138;5.444;2022-12-18T00:58:54;53.07;;;20.43;;
68718;SDS011;55696;52.138;5.444;2022-12-18T01:01:21;55.35;;;19.95;;
68718;SDS011;55696;52.138;5.444;2022-12-18T01:03:48;46.92;;;19.48;;
68718;SDS011;55696;52.138;5.444;2022-12-18T01:06:15;53.10;;;20.25;;
68718;SDS011;55696;52.138;5.444;2022-12-18T01:08:42;52.05;;;19.27;;
68718;SDS011;55696;52.138;5.444;2022-12-18T01:11:16;57.70;;;19.70;;
68718;SDS011;55696;52.138;5.444;2022-12-18T01:13:44;45.80;;;17.55;;
68718;SDS011;55696;52.138;5.444;2022-12-18T01:16:12;49.90;;;18.53;;
68718;SDS011;55696;52.138;5.444;2022-12-18T01:18:40;47.85;;;17.65;;
68718;SDS011;55696;52.138;5.444;2022-12-18T01:21:08;56.40;;;18.73;;
68718;SDS011;55696;52.138;5.444;2022-12-18T01:23:36;53.00;;;21.10;;
68718;SDS011;55696;52.138;5.444;2022-12-18T01:26:05;53.08;;;18.35;;
68718;SDS011;55696;52.138;5.444;2022-12-18T01:28:37;52.08;;;17.73;;
68718;SDS011;55696;52.138;5.444;2022-12-18T01:31:16;56.13;;;19.85;;
68718;SDS011;55696;52.138;5.444;2022-12-18T01:33:45;50.20;;;18.75;;
68718;SDS011;55696;52.138;5.444;2022-12-18T01:36:17;49.25;;;19.48;;
68718;SDS011;55696;52.138;5.444;2022-12-18T01:38:45;52.38;;;20.70;;
68718;SDS011;55696;52.138;5.444;2022-12-18T01:41:14;53.77;;;18.73;;
68718;SDS011;55696;52.138;5.444;2022-12-18T01:43:47;53.33;;;19.83;;
68718;SDS011;55696;52.138;5.444;2022-12-18T01:46:24;56.42;;;19.27;;
68718;SDS011;55696;52.138;5.444;2022-12-18T01:48:58;56.23;;;19.83;;
68718;SDS011;55696;52.138;5.444;2022-12-18T01:51:27;34.20;;;13.38;;
68718;SDS011;55696;52.138;5.444;2022-12-18T01:53:56;56.15;;;19.45;;
68718;SDS011;55696;52.138;5.444;2022-12-18T01:56:25;50.13;;;19.08;;
68718;SDS011;55696;52.138;5.444;2022-12-18T01:58:54;50.22;;;19.90;;
68718;SDS011;55696;52.138;5.444;2022-12-18T02:01:26;54.28;;;19.80;;
68718;SDS011;55696;52.138;5.444;2022-12-18T02:03:53;60.42;;;19.70;;
68718;SDS011;55696;52.138;5.444;2022-12-18T02:11:39;45.53;;;16.75;;
68718;SDS011;55696;52.138;5.444;2022-12-18T02:19:37;52.20;;;19.58;;
68718;SDS011;55696;52.138;5.444;2022-12-18T02:22:36;43.45;;;18.83;;
68718;SDS011;55696;52.138;5.444;2022-12-18T02:27:57;55.22;;;18.77;;
68718;SDS011;55696;52.138;5.444;2022-12-18T02:30:29;46.55;;;18.20;;
68718;SDS011;55696;52.138;5.444;2022-12-18T02:32:59;50.13;;;19.10;;
68718;SDS011;55696;52.138;5.444;2022-12-18T02:35:31;47.97;;;18.25;;
68718;SDS011;55696;52.138;5.444;2022-12-18T02:38:00;45.13;;;18.05;;
68718;SDS011;55696;52.138;5.444;2022-12-18T02:40:32;45.23;;;18.63;;
68718;SDS011;55696;52.138;5.444;2022-12-18T02:43:10;49.22;;;18.50;;
68718;SDS011;55696;52.138;5.444;2022-12-18T02:45:52;47.58;;;18.60;;
68718;SDS011;55696;52.138;5.444;2022-12-18T02:48:23;46.38;;;18.75;;
68718;SDS011;55696;52.138;5.444;2022-12-18T02:50:58;47.45;;;18.23;;
68718;SDS011;55696;52.138;5.444;2022-12-18T02:53:59;44.88;;;17.80;;
68718;SDS011;55696;52.138;5.444;2022-12-18T02:56:48;47.22;;;17.27;;
68718;SDS011;55696;52.138;5.444;2022-12-18T02:59:30;46.00;;;17.63;;
68718;SDS011;55696;52.138;5.444;2022-12-18T03:02:33;41.50;;;16.75;;
68718;SDS011;55696;52.138;5.444;2022-12-18T03:05:12;45.20;;;16.25;;
68718;SDS011;55696;52.138;5.444;2022-12-18T03:08:03;47.77;;;18.17;;
68718;SDS011;55696;52.138;5.444;2022-12-18T03:10:39;47.05;;;17.60;;
68718;SDS011;55696;52.138;5.444;2022-12-18T03:13:13;44.40;;;17.52;;
68718;SDS011;55696;52.138;5.444;2022-12-18T03:15:47;42.30;;;16.98;;
68718;SDS011;55696;52.138;5.444;2022-12-18T03:18:18;44.08;;;15.80;;
68718;SDS011;55696;52.138;5.444;2022-12-18T03:20:52;36.53;;;16.33;;
68718;SDS011;55696;52.138;5.444;2022-12-18T03:23:23;39.83;;;16.83;;
68718;SDS011;55696;52.138;5.444;2022-12-18T03:25:56;38.93;;;15.27;;
68718;SDS011;55696;52.138;5.444;2022-12-18T03:28:36;38.95;;;15.68;;
68718;SDS011;55696;52.138;5.444;2022-12-18T03:31:08;40.15;;;16.63;;
68718;SDS011;55696;52.138;5.444;2022-12-18T03:33:38;48.27;;;17.37;;
68718;SDS011;55696;52.138;5.444;2022-12-18T03:36:10;41.78;;;16.83;;
68718;SDS011;55696;52.138;5.444;2022-12-18T03:38:37;41.25;;;16.92;;
68718;SDS011;55696;52.138;5.444;2022-12-18T03:41:17;41.20;;;16.90;;
68718;SDS011;55696;52.138;5.444;2022-12-18T03:44:19;43.60;;;18.13;;
68718;SDS011;55696;52.138;5.444;2022-12-18T03:46:52;45.78;;;16.83;;
68718;SDS011;55696;52.138;5.444;2022-12-18T03:49:38;38.55;;;16.17;;
68718;SDS011;55696;52.138;5.444;2022-12-18T03:52:22;39.00;;;15.10;;
68718;SDS011;55696;52.138;5.444;2022-12-18T03:54:53;41.50;;;15.30;;
68718;SDS011;55696;52.138;5.444;2022-12-18T03:57:23;38.40;;;15.65;;
68718;SDS011;55696;52.138;5.444;2022-12-18T03:59:56;41.00;;;15.53;;
68718;SDS011;55696;52.138;5.444;2022-12-18T04:02:40;38.97;;;14.35;;
68718;SDS011;55696;52.138;5.444;2022-12-18T04:05:16;37.42;;;15.23;;
68718;SDS011;55696;52.138;5.444;2022-12-18T04:07:45;33.50;;;13.45;;
68718;SDS011;55696;52.138;5.444;2022-12-18T04:10:14;36.50;;;15.30;;
68718;SDS011;55696;52.138;5.444;2022-12-18T04:12:42;32.70;;;14.60;;
68718;SDS011;55696;52.138;5.444;2022-12-18T04:15:11;35.33;;;14.73;;
68718;SDS011;55696;52.138;5.444;2022-12-18T04:17:41;31.30;;;13.83;;
68718;SDS011;55696;52.138;5.444;2022-12-18T04:20:18;37.63;;;15.50;;
68718;SDS011;55696;52.138;5.444;2022-12-18T04:22:46;35.63;;;14.00;;
68718;SDS011;55696;52.138;5.444;2022-12-18T04:25:13;34.83;;;14.83;;
68718;SDS011;55696;52.138;5.444;2022-12-18T04:27:52;37.83;;;13.85;;
68718;SDS011;55696;52.138;5.444;2022-12-18T04:30:19;38.53;;;16.58;;
68718;SDS011;55696;52.138;5.444;2022-12-18T04:32:46;30.10;;;13.65;;
68718;SDS011;55696;52.138;5.444;2022-12-18T04:35:18;31.27;;;13.23;;
68718;SDS011;55696;52.138;5.444;2022-12-18T04:37:45;32.65;;;13.52;;
68718;SDS011;55696;52.138;5.444;2022-12-18T04:40:12;32.85;;;12.20;;
68718;SDS011;55696;52.138;5.444;2022-12-18T04:42:44;35.93;;;13.73;;
68718;SDS011;55696;52.138;5.444;2022-12-18T04:45:11;33.35;;;13.50;;
68718;SDS011;55696;52.138;5.444;2022-12-18T04:47:38;31.45;;;13.55;;
68718;SDS011;55696;52.138;5.444;2022-12-18T04:50:05;25.70;;;12.50;;
68718;SDS011;55696;52.138;5.444;2022-12-18T04:52:32;29.17;;;11.98;;
68718;SDS011;55696;52.138;5.444;2022-12-18T04:54:58;26.02;;;11.85;;
68718;SDS011;55696;52.138;5.444;2022-12-18T04:57:25;26.90;;;12.25;;
68718;SDS011;55696;52.138;5.444;2022-12-18T04:59:52;30.83;;;12.52;;
68718;SDS011;55696;52.138;5.444;2022-12-18T05:02:19;27.88;;;12.20;;
68718;SDS011;55696;52.138;5.444;2022-12-18T05:04:45;23.88;;;11.07;;
68718;SDS011;55696;52.138;5.444;2022-12-18T05:07:12;31.77;;;12.33;;
68718;SDS011;55696;52.138;5.444;2022-12-18T05:09:39;26.92;;;11.48;;
68718;SDS011;55696;52.138;5.444;2022-12-18T05:12:06;25.98;;;11.40;;
68718;SDS011;55696;52.138;5.444;2022-12-18T05:14:33;29.33;;;10.37;;
68718;SDS011;55696;52.138;5.444;2022-12-18T05:17:00;29.48;;;12.18;;
68718;SDS011;55696;52.138;5.444;2022-12-18T05:19:26;26.17;;;11.77;;
68718;SDS011;55696;52.138;5.444;2022-12-18T05:21:53;27.27;;;10.07;;
68718;SDS011;55696;52.138;5.444;2022-12-18T05:24:20;28.25;;;11.27;;
68718;SDS011;55696;52.138;5.444;2022-12-18T05:26:47;27.10;;;12.25;;
68718;SDS011;55696;52.138;5.444;2022-12-18T05:29:14;30.35;;;12.32;;
68718;SDS011;55696;52.138;5.444;2022-12-18T05:31:41;23.93;;;11.03;;
68718;SDS011;55696;52.138;5.444;2022-12-18T05:34:08;25.65;;;11.88;;
68718;SDS011;55696;52.138;5.444;2022-12-18T05:36:36;21.23;;;9.70;;
68718;SDS011;55696;52.138;5.444;2022-12-18T05:39:03;26.53;;;11.57;;
68718;SDS011;55696;52.138;5.444;2022-12-18T05:41:31;25.55;;;11.27;;
68718;SDS011;55696;52.138;5.444;2022-12-18T05:43:58;23.70;;;12.50;;
68718;SDS011;55696;52.138;5.444;2022-12-18T05:46:25;26.85;;;12.43;;
68718;SDS011;55696;52.138;5.444;2022-12-18T05:48:53;25.73;;;12.40;;
68718;SDS011;55696;52.138;5.444;2022-12-18T05:51:20;26.05;;;12.00;;
68718;SDS011;55696;52.138;5.444;2022-12-18T05:53:48;23.80;;;11.63;;
68718;SDS011;55696;52.138;5.444;2022-12-18T05:56:19;23.30;;;10.63;;
68718;SDS011;55696;52.138;5.444;2022-12-18T05:58:47;25.10;;;10.57;;
68718;SDS011;55696;52.138;5.444;2022-12-18T06:01:18;25.95;;;11.20;;
68718;SDS011;55696;52.138;5.444;2022-12-18T06:03:47;20.53;;;10.73;;
68718;SDS011;55696;52.138;5.444;2022-12-18T06:06:17;26.63;;;10.98;;
68718;SDS011;55696;52.138;5.444;2022-12-18T06:08:52;24.70;;;11.70;;
68718;SDS011;55696;52.138;5.444;2022-12-18T06:11:22;26.33;;;12.07;;
68718;SDS011;55696;52.138;5.444;2022-12-18T06:13:52;28.27;;;10.73;;
68718;SDS011;55696;52.138;5.444;2022-12-18T06:16:24;26.02;;;11.98;;
68718;SDS011;55696;52.138;5.444;2022-12-18T06:18:52;24.75;;;11.57;;
68718;SDS011;55696;52.138;5.444;2022-12-18T06:21:21;25.80;;;10.17;;
68718;SDS011;55696;52.138;5.444;2022-12-18T06:23:48;24.35;;;9.95;;
68718;SDS011;55696;52.138;5.444;2022-12-18T06:26:15;24.02;;;10.35;;
68718;SDS011;55696;52.138;5.444;2022-12-18T06:28:42;19.87;;;9.87;;
68718;SDS011;55696;52.138;5.444;2022-12-18T06:31:09;23.95;;;10.23;;
68718;SDS011;55696;52.138;5.444;2022-12-18T06:33:37;22.13;;;10.27;;
68718;SDS011;55696;52.138;5.444;2022-12-18T06:36:08;23.13;;;10.55;;
68718;SDS011;55696;52.138;5.444;2022-12-18T06:38:38;27.77;;;11.27;;
68718;SDS011;55696;52.138;5.444;2022-12-18T06:41:11;23.15;;;11.25;;
68718;SDS011;55696;52.138;5.444;2022-12-18T06:43:40;20.85;;;11.07;;
68718;SDS011;55696;52.138;5.444;2022-12-18T06:46:08;25.53;;;11.37;;
68718;SDS011;55696;52.138;5.444;2022-12-18T06:48:35;26.77;;;10.95;;
68718;SDS011;55696;52.138;5.444;2022-12-18T06:51:02;23.23;;;9.95;;
68718;SDS011;55696;52.138;5.444;2022-12-18T06:53:29;24.10;;;10.80;;
68718;SDS011;55696;52.138;5.444;2022-12-18T06:56:04;25.10;;;10.85;;
68718;SDS011;55696;52.138;5.444;2022-12-18T06:58:36;24.42;;;11.02;;
68718;SDS011;55696;52.138;5.444;2022-12-18T07:01:04;26.13;;;9.93;;
68718;SDS011;55696;52.138;5.444;2022-12-18T07:03:32;27.40;;;10.35;;
68718;SDS011;55696;52.138;5.444;2022-12-18T07:05:58;23.33;;;11.77;;
68718;SDS011;55696;52.138;5.444;2022-12-18T07:08:25;25.45;;;10.75;;
68718;SDS011;55696;52.138;5.444;2022-12-18T07:10:52;26.73;;;10.47;;
68718;SDS011;55696;52.138;5.444;2022-12-18T07:13:22;24.42;;;11.10;;
68718;SDS011;55696;52.138;5.444;2022-12-18T07:15:48;22.73;;;11.70;;
68718;SDS011;55696;52.138;5.444;2022-12-18T07:18:15;26.90;;;11.17;;
68718;SDS011;55696;52.138;5.444;2022-12-18T07:20:42;24.70;;;10.25;;
68718;SDS011;55696;52.138;5.444;2022-12-18T07:23:11;20.90;;;9.48;;
68718;SDS011;55696;52.138;5.444;2022-12-18T07:25:38;24.95;;;11.15;;
68718;SDS011;55696;52.138;5.444;2022-12-18T07:28:05;18.45;;;9.13;;
68718;SDS011;55696;52.138;5.444;2022-12-18T07:30:36;23.80;;;11.23;;
68718;SDS011;55696;52.138;5.444;2022-12-18T07:33:04;20.48;;;10.07;;
68718;SDS011;55696;52.138;5.444;2022-12-18T07:35:32;26.07;;;10.67;;
68718;SDS011;55696;52.138;5.444;2022-12-18T07:38:00;24.02;;;11.48;;
68718;SDS011;55696;52.138;5.444;2022-12-18T07:40:26;22.63;;;10.20;;
68718;SDS011;55696;52.138;5.444;2022-12-18T07:42:53;22.57;;;11.07;;
68718;SDS011;55696;52.138;5.444;2022-12-18T07:45:20;21.85;;;10.00;;
68718;SDS011;55696;52.138;5.444;2022-12-18T07:47:46;19.55;;;9.30;;
68718;SDS011;55696;52.138;5.444;2022-12-18T07:50:13;22.95;;;10.55;;
68718;SDS011;55696;52.138;5.444;2022-12-18T07:52:40;22.55;;;9.90;;
68718;SDS011;55696;52.138;5.444;2022-12-18T07:55:07;23.42;;;10.23;;
68718;SDS011;55696;52.138;5.444;2022-12-18T07:57:34;19.25;;;10.25;;
68718;SDS011;55696;52.138;5.444;2022-12-18T08:00:20;17.53;;;8.83;;
68718;SDS011;55696;52.138;5.444;2022-12-18T08:02:47;23.83;;;10.73;;
68718;SDS011;55696;52.138;5.444;2022-12-18T08:05:14;19.83;;;9.85;;
68718;SDS011;55696;52.138;5.444;2022-12-18T08:07:41;17.17;;;8.63;;
68718;SDS011;55696;52.138;5.444;2022-12-18T08:10:08;19.63;;;8.65;;
68718;SDS011;55696;52.138;5.444;2022-12-18T08:12:34;17.17;;;9.15;;
68718;SDS011;55696;52.138;5.444;2022-12-18T08:15:01;20.65;;;9.10;;
68718;SDS011;55696;52.138;5.444;2022-12-18T08:17:29;18.95;;;9.43;;
68718;SDS011;55696;52.138;5.444;2022-12-18T08:19:55;18.70;;;9.23;;
68718;SDS011;55696;52.138;5.444;2022-12-18T08:22:22;20.23;;;9.73;;
68718;SDS011;55696;52.138;5.444;2022-12-18T08:24:49;19.77;;;8.93;;
68718;SDS011;55696;52.138;5.444;2022-12-18T08:27:16;22.20;;;9.68;;
68718;SDS011;55696;52.138;5.444;2022-12-18T08:29:55;22.25;;;9.82;;
68718;SDS011;55696;52.138;5.444;2022-12-18T08:32:23;21.37;;;10.53;;
68718;SDS011;55696;52.138;5.444;2022-12-18T08:34:51;20.02;;;9.73;;
68718;SDS011;55696;52.138;5.444;2022-12-18T08:37:17;26.58;;;12.55;;
68718;SDS011;55696;52.138;5.444;2022-12-18T08:39:44;29.80;;;14.40;;
68718;SDS011;55696;52.138;5.444;2022-12-18T08:42:11;26.85;;;13.25;;
68718;SDS011;55696;52.138;5.444;2022-12-18T08:44:56;20.20;;;10.20;;
68718;SDS011;55696;52.138;5.444;2022-12-18T08:47:23;19.17;;;9.63;;
68718;SDS011;55696;52.138;5.444;2022-12-18T08:49:52;17.97;;;9.27;;
68718;SDS011;55696;52.138;5.444;2022-12-18T08:52:19;22.63;;;10.32;;
68718;SDS011;55696;52.138;5.444;2022-12-18T08:54:45;20.45;;;9.90;;
68718;SDS011;55696;52.138;5.444;2022-12-18T08:57:12;24.03;;;10.57;;
68718;SDS011;55696;52.138;5.444;2022-12-18T08:59:39;19.63;;;9.35;;
68718;SDS011;55696;52.138;5.444;2022-12-18T09:02:05;20.42;;;9.70;;
68718;SDS011;55696;52.138;5.444;2022-12-18T09:04:34;17.17;;;8.98;;
68718;SDS011;55696;52.138;5.444;2022-12-18T09:07:01;19.70;;;10.13;;
68718;SDS011;55696;52.138;5.444;2022-12-18T09:09:28;22.90;;;9.95;;
68718;SDS011;55696;52.138;5.444;2022-12-18T09:11:54;18.75;;;9.48;;
68718;SDS011;55696;52.138;5.444;2022-12-18T09:14:21;20.43;;;9.17;;
68718;SDS011;55696;52.138;5.444;2022-12-18T09:16:48;22.02;;;10.80;;
68718;SDS011;55696;52.138;5.444;2022-12-18T09:19:15;20.15;;;9.82;;
68718;SDS011;55696;52.138;5.444;2022-12-18T09:21:42;20.83;;;10.30;;
68718;SDS011;55696;52.138;5.444;2022-12-18T09:24:13;21.98;;;9.38;;
68718;SDS011;55696;52.138;5.444;2022-12-18T09:26:42;21.67;;;10.00;;
68718;SDS011;55696;52.138;5.444;2022-12-18T09:29:13;19.75;;;8.88;;
68718;SDS011;55696;52.138;5.444;2022-12-18T09:31:43;20.67;;;9.02;;
68718;SDS011;55696;52.138;5.444;2022-12-18T09:34:09;16.92;;;9.20;;
68718;SDS011;55696;52.138;5.444;2022-12-18T09:36:36;19.08;;;9.13;;
68718;SDS011;55696;52.138;5.444;2022-12-18T09:39:04;15.87;;;8.00;;
68718;SDS011;55696;52.138;5.444;2022-12-18T09:44:34;18.55;;;8.57;;
68718;SDS011;55696;52.138;5.444;2022-12-18T09:47:16;15.73;;;7.93;;
68718;SDS011;55696;52.138;5.444;2022-12-18T09:49:51;16.63;;;8.55;;
68718;SDS011;55696;52.138;5.444;2022-12-18T09:52:23;20.13;;;9.05;;
68718;SDS011;55696;52.138;5.444;2022-12-18T09:55:17;21.83;;;8.65;;
68718;SDS011;55696;52.138;5.444;2022-12-18T09:57:52;18.55;;;8.40;;
68718;SDS011;55696;52.138;5.444;2022-12-18T10:00:32;16.25;;;8.40;;
68718;SDS011;55696;52.138;5.444;2022-12-18T10:03:00;14.85;;;7.53;;
68718;SDS011;55696;52.138;5.444;2022-12-18T10:05:43;14.40;;;7.30;;
68718;SDS011;55696;52.138;5.444;2022-12-18T10:10:53;13.73;;;6.95;;
68718;SDS011;55696;52.138;5.444;2022-12-18T10:21:21;20.25;;;9.35;;
68718;SDS011;55696;52.138;5.444;2022-12-18T10:26:40;14.65;;;7.47;;
68718;SDS011;55696;52.138;5.444;2022-12-18T10:29:11;16.83;;;7.78;;
68718;SDS011;55696;52.138;5.444;2022-12-18T10:31:39;18.50;;;8.70;;
68718;SDS011;55696;52.138;5.444;2022-12-18T10:34:10;15.38;;;8.10;;
68718;SDS011;55696;52.138;5.444;2022-12-18T10:36:37;18.90;;;8.57;;
68718;SDS011;55696;52.138;5.444;2022-12-18T10:39:18;15.80;;;7.60;;
68718;SDS011;55696;52.138;5.444;2022-12-18T10:41:48;15.07;;;7.30;;
68718;SDS011;55696;52.138;5.444;2022-12-18T10:44:19;18.88;;;7.80;;
68718;SDS011;55696;52.138;5.444;2022-12-18T10:46:51;16.00;;;7.30;;
68718;SDS011;55696;52.138;5.444;2022-12-18T10:54:51;17.48;;;6.80;;
68718;SDS011;55696;52.138;5.444;2022-12-18T10:57:29;20.43;;;6.87;;
68718;SDS011;55696;52.138;5.444;2022-12-18T10:59:59;18.52;;;7.88;;
68718;SDS011;55696;52.138;5.444;2022-12-18T11:02:39;15.98;;;7.97;;
68718;SDS011;55696;52.138;5.444;2022-12-18T11:07:54;14.85;;;7.45;;
68718;SDS011;55696;52.138;5.444;2022-12-18T11:10:31;16.77;;;7.90;;
68718;SDS011;55696;52.138;5.444;2022-12-18T11:13:17;13.73;;;7.00;;
68718;SDS011;55696;52.138;5.444;2022-12-18T11:15:46;13.63;;;7.57;;
68718;SDS011;55696;52.138;5.444;2022-12-18T11:20:53;14.35;;;7.80;;
68718;SDS011;55696;52.138;5.444;2022-12-18T11:23:25;14.93;;;7.57;;
68718;SDS011;55696;52.138;5.444;2022-12-18T11:25:54;16.75;;;8.15;;
68718;SDS011;55696;52.138;5.444;2022-12-18T11:31:23;18.90;;;8.43;;
68718;SDS011;55696;52.138;5.444;2022-12-18T11:33:55;15.85;;;7.07;;
68718;SDS011;55696;52.138;5.444;2022-12-18T11:36:47;16.90;;;7.45;;
68718;SDS011;55696;52.138;5.444;2022-12-18T11:42:01;17.60;;;7.63;;
68718;SDS011;55696;52.138;5.444;2022-12-18T11:44:38;15.18;;;6.93;;
68718;SDS011;55696;52.138;5.444;2022-12-18T11:47:28;16.65;;;7.82;;
68718;SDS011;55696;52.138;5.444;2022-12-18T11:50:16;17.27;;;7.33;;
68718;SDS011;55696;52.138;5.444;2022-12-18T11:52:50;18.90;;;8.90;;
68718;SDS011;55696;52.138;5.444;2022-12-18T12:20:53;14.02;;;7.50;;
68718;SDS011;55696;52.138;5.444;2022-12-18T12:28:52;16.70;;;7.55;;
68718;SDS011;55696;52.138;5.444;2022-12-18T12:31:38;13.65;;;7.60;;
68718;SDS011;55696;52.138;5.444;2022-12-18T12:36:53;18.85;;;8.18;;
68718;SDS011;55696;52.138;5.444;2022-12-18T12:39:40;22.23;;;8.60;;
68718;SDS011;55696;52.138;5.444;2022-12-18T12:42:15;14.13;;;7.03;;
68718;SDS011;55696;52.138;5.444;2022-12-18T12:45:09;15.77;;;7.10;;
68718;SDS011;55696;52.138;5.444;2022-12-18T12:47:56;26.52;;;7.93;;
68718;SDS011;55696;52.138;5.444;2022-12-18T12:50:25;15.60;;;7.85;;
68718;SDS011;55696;52.138;5.444;2022-12-18T12:52:53;16.50;;;8.10;;
68718;SDS011;55696;52.138;5.444;2022-12-18T12:55:22;16.48;;;8.35;;
68718;SDS011;55696;52.138;5.444;2022-12-18T12:58:00;14.63;;;7.88;;
68718;SDS011;55696;52.138;5.444;2022-12-18T13:00:38;16.17;;;7.78;;
68718;SDS011;55696;52.138;5.444;2022-12-18T13:06:23;18.13;;;7.95;;
68718;SDS011;55696;52.138;5.444;2022-12-18T13:09:00;16.48;;;8.15;;
68718;SDS011;55696;52.138;5.444;2022-12-18T13:11:30;16.77;;;8.37;;
68718;SDS011;55696;52.138;5.444;2022-12-18T13:14:44;14.90;;;7.53;;
68718;SDS011;55696;52.138;5.444;2022-12-18T13:19:48;22.90;;;8.27;;
68718;SDS011;55696;52.138;5.444;2022-12-18T13:22:28;18.25;;;7.72;;
68718;SDS011;55696;52.138;5.444;2022-12-18T13:28:06;18.80;;;8.50;;
68718;SDS011;55696;52.138;5.444;2022-12-18T13:30:41;19.60;;;8.85;;
68718;SDS011;55696;52.138;5.444;2022-12-18T13:40:59;17.75;;;7.60;;
68718;SDS011;55696;52.138;5.444;2022-12-18T13:43:43;17.27;;;8.02;;
68718;SDS011;55696;52.138;5.444;2022-12-18T13:46:20;17.33;;;8.57;;
68718;SDS011;55696;52.138;5.444;2022-12-18T13:48:51;16.65;;;7.32;;
68718;SDS011;55696;52.138;5.444;2022-12-18T13:51:22;18.70;;;8.18;;
68718;SDS011;55696;52.138;5.444;2022-12-18T13:53:51;14.02;;;8.30;;
68718;SDS011;55696;52.138;5.444;2022-12-18T13:56:42;17.58;;;9.13;;
68718;SDS011;55696;52.138;5.444;2022-12-18T14:01:43;16.48;;;8.40;;
68718;SDS011;55696;52.138;5.444;2022-12-18T14:04:12;20.77;;;8.97;;
68718;SDS011;55696;52.138;5.444;2022-12-18T14:06:46;24.75;;;8.65;;
68718;SDS011;55696;52.138;5.444;2022-12-18T14:09:21;20.27;;;9.07;;
68718;SDS011;55696;52.138;5.444;2022-12-18T14:11:55;16.97;;;8.37;;
68718;SDS011;55696;52.138;5.444;2022-12-18T14:14:44;18.27;;;8.43;;
68718;SDS011;55696;52.138;5.444;2022-12-18T14:17:15;19.45;;;8.77;;
68718;SDS011;55696;52.138;5.444;2022-12-18T14:19:46;19.58;;;8.65;;
68718;SDS011;55696;52.138;5.444;2022-12-18T14:22:20;18.95;;;9.05;;
68718;SDS011;55696;52.138;5.444;2022-12-18T14:27:47;18.52;;;9.40;;
68718;SDS011;55696;52.138;5.444;2022-12-18T14:30:23;17.30;;;8.80;;
68718;SDS011;55696;52.138;5.444;2022-12-18T14:35:54;15.50;;;7.82;;
68718;SDS011;55696;52.138;5.444;2022-12-18T14:41:09;22.85;;;9.23;;
68718;SDS011;55696;52.138;5.444;2022-12-18T14:43:38;19.88;;;9.27;;
68718;SDS011;55696;52.138;5.444;2022-12-18T14:49:27;20.85;;;9.10;;
68718;SDS011;55696;52.138;5.444;2022-12-18T14:52:04;17.75;;;8.57;;
68718;SDS011;55696;52.138;5.444;2022-12-18T14:54:34;16.83;;;8.88;;
68718;SDS011;55696;52.138;5.444;2022-12-18T14:57:04;19.60;;;9.30;;
68718;SDS011;55696;52.138;5.444;2022-12-18T14:59:47;17.50;;;8.45;;
68718;SDS011;55696;52.138;5.444;2022-12-18T15:04:41;24.57;;;9.23;;
68718;SDS011;55696;52.138;5.444;2022-12-18T15:20:50;21.00;;;9.60;;
68718;SDS011;55696;52.138;5.444;2022-12-18T15:25:58;17.75;;;8.65;;
68718;SDS011;55696;52.138;5.444;2022-12-18T15:28:33;18.10;;;8.68;;
68718;SDS011;55696;52.138;5.444;2022-12-18T15:33:42;18.85;;;9.13;;
68718;SDS011;55696;52.138;5.444;2022-12-18T15:36:15;22.13;;;10.05;;
68718;SDS011;55696;52.138;5.444;2022-12-18T15:38:50;20.83;;;9.75;;
68718;SDS011;55696;52.138;5.444;2022-12-18T15:41:19;18.92;;;8.80;;
68718;SDS011;55696;52.138;5.444;2022-12-18T15:43:51;19.27;;;10.18;;
68718;SDS011;55696;52.138;5.444;2022-12-18T15:46:22;24.02;;;10.68;;
68718;SDS011;55696;52.138;5.444;2022-12-18T15:48:52;22.07;;;9.37;;
68718;SDS011;55696;52.138;5.444;2022-12-18T15:51:31;19.73;;;9.55;;
68718;SDS011;55696;52.138;5.444;2022-12-18T15:54:01;23.70;;;9.73;;
68718;SDS011;55696;52.138;5.444;2022-12-18T15:56:32;19.83;;;10.13;;
68718;SDS011;55696;52.138;5.444;2022-12-18T15:59:18;19.75;;;9.80;;
68718;SDS011;55696;52.138;5.444;2022-12-18T16:01:46;22.70;;;10.75;;
68718;SDS011;55696;52.138;5.444;2022-12-18T16:04:16;19.85;;;9.77;;
68718;SDS011;55696;52.138;5.444;2022-12-18T16:06:48;19.92;;;10.32;;
68718;SDS011;55696;52.138;5.444;2022-12-18T16:09:35;20.88;;;10.18;;
68718;SDS011;55696;52.138;5.444;2022-12-18T16:12:03;21.42;;;9.85;;
68718;SDS011;55696;52.138;5.444;2022-12-18T16:14:31;20.43;;;9.90;;
68718;SDS011;55696;52.138;5.444;2022-12-18T16:16:59;19.65;;;10.15;;
68718;SDS011;55696;52.138;5.444;2022-12-18T16:19:27;21.73;;;8.88;;
68718;SDS011;55696;52.138;5.444;2022-12-18T16:21:55;19.10;;;9.67;;
68718;SDS011;55696;52.138;5.444;2022-12-18T16:24:27;23.77;;;11.38;;
68718;SDS011;55696;52.138;5.444;2022-12-18T16:26:56;19.75;;;10.35;;
68718;SDS011;55696;52.138;5.444;2022-12-18T16:29:26;19.50;;;9.70;;
68718;SDS011;55696;52.138;5.444;2022-12-18T16:31:54;24.58;;;11.20;;
68718;SDS011;55696;52.138;5.444;2022-12-18T16:34:29;22.00;;;10.10;;
68718;SDS011;55696;52.138;5.444;2022-12-18T16:37:02;22.38;;;11.07;;
68718;SDS011;55696;52.138;5.444;2022-12-18T16:39:35;22.60;;;10.43;;
68718;SDS011;55696;52.138;5.444;2022-12-18T16:42:03;22.90;;;10.32;;
68718;SDS011;55696;52.138;5.444;2022-12-18T16:44:40;24.42;;;11.20;;
68718;SDS011;55696;52.138;5.444;2022-12-18T16:47:08;22.27;;;11.10;;
68718;SDS011;55696;52.138;5.444;2022-12-18T16:49:38;20.30;;;9.85;;
68718;SDS011;55696;52.138;5.444;2022-12-18T16:52:05;21.50;;;10.07;;
68718;SDS011;55696;52.138;5.444;2022-12-18T16:54:33;26.05;;;11.43;;
68718;SDS011;55696;52.138;5.444;2022-12-18T16:57:01;24.85;;;10.68;;
68718;SDS011;55696;52.138;5.444;2022-12-18T16:59:30;22.58;;;11.20;;
68718;SDS011;55696;52.138;5.444;2022-12-18T17:01:57;19.48;;;9.57;;
68718;SDS011;55696;52.138;5.444;2022-12-18T17:04:24;23.70;;;11.43;;